createdAt,value
2022-09-21T00:00:34.292Z,0.45
2022-09-21T00:03:05.000Z,0.60
2022-09-21T00:05:36.086Z,0.30
2022-09-21T00:08:09.179Z,0.52
2022-09-21T00:10:39.880Z,0.60
2022-09-21T00:13:12.978Z,0.45
2022-09-21T00:15:45.953Z,0.43
2022-09-21T00:18:17.117Z,0.40
2022-09-21T00:20:47.759Z,0.45
2022-09-21T00:23:19.450Z,0.38
2022-09-21T00:25:49.455Z,0.50
2022-09-21T00:28:20.744Z,0.32
2022-09-21T00:30:53.562Z,0.20
2022-09-21T00:33:25.223Z,0.43
2022-09-21T00:35:56.135Z,0.55
2022-09-21T00:38:26.566Z,0.40
2022-09-21T00:40:57.182Z,0.40
2022-09-21T00:43:28.157Z,0.50
2022-09-21T00:46:06.148Z,0.35
2022-09-21T00:48:37.461Z,0.47
2022-09-21T00:51:12.062Z,0.57
2022-09-21T00:53:43.003Z,0.40
2022-09-21T00:56:16.725Z,0.50
2022-09-21T00:58:52.455Z,0.40
2022-09-21T01:01:25.415Z,0.50
2022-09-21T01:03:58.401Z,0.35
2022-09-21T01:06:30.008Z,0.40
2022-09-21T01:09:01.173Z,0.45
2022-09-21T01:11:49.391Z,0.40
2022-09-21T01:14:56.067Z,0.73
2022-09-21T01:17:43.309Z,0.70
2022-09-21T01:21:10.986Z,0.68
2022-09-21T01:24:25.933Z,0.60
2022-09-21T01:27:48.667Z,0.55
2022-09-21T01:30:24.696Z,0.90
2022-09-21T01:33:05.459Z,0.65
2022-09-21T01:35:44.317Z,0.70
2022-09-21T01:38:23.199Z,0.70
2022-09-21T01:40:59.717Z,0.80
2022-09-21T01:43:38.048Z,0.80
2022-09-21T01:46:18.756Z,0.73
2022-09-21T01:48:56.394Z,1.00
2022-09-21T01:51:32.115Z,1.05
2022-09-21T01:54:11.861Z,0.90
2022-09-21T01:56:52.478Z,0.75
2022-09-21T01:59:33.524Z,0.45
2022-09-21T02:02:15.152Z,0.73
2022-09-21T02:04:45.651Z,0.73
2022-09-21T02:07:18.983Z,0.95
2022-09-21T02:09:51.009Z,0.80
2022-09-21T02:12:21.556Z,0.63
2022-09-21T02:14:56.348Z,0.75
2022-09-21T02:17:43.518Z,0.80
2022-09-21T02:20:26.336Z,0.85
2022-09-21T02:23:09.647Z,0.77
2022-09-21T02:25:52.933Z,0.90
2022-09-21T02:28:39.499Z,1.13
2022-09-21T02:31:19.509Z,0.47
2022-09-21T02:34:03.696Z,0.70
2022-09-21T02:36:45.617Z,1.10
2022-09-21T02:39:22.623Z,0.70
2022-09-21T02:42:06.756Z,0.70
2022-09-21T02:44:46.126Z,0.70
2022-09-21T02:47:22.742Z,0.75
2022-09-21T02:50:00.988Z,1.00
2022-09-21T02:52:35.185Z,0.90
2022-09-21T02:55:07.021Z,0.75
2022-09-21T02:57:38.703Z,0.98
2022-09-21T03:00:12.081Z,0.77
2022-09-21T03:02:44.216Z,0.98
2022-09-21T03:05:18.592Z,0.70
2022-09-21T03:07:49.255Z,0.75
2022-09-21T03:10:20.756Z,0.90
2022-09-21T03:12:51.963Z,0.70
2022-09-21T03:15:22.538Z,0.80
2022-09-21T03:17:52.887Z,0.80
2022-09-21T03:20:25.855Z,0.75
2022-09-21T03:22:59.768Z,0.77
2022-09-21T03:25:30.990Z,0.70
2022-09-21T03:28:01.975Z,0.60
2022-09-21T03:30:32.139Z,0.73
2022-09-21T03:33:04.005Z,1.00
2022-09-21T03:35:37.441Z,0.55
2022-09-21T03:38:08.783Z,0.80
2022-09-21T03:40:39.521Z,0.80
2022-09-21T03:43:12.003Z,0.82
2022-09-21T03:45:43.353Z,0.80
2022-09-21T03:48:15.865Z,0.95
2022-09-21T03:50:47.890Z,0.80
2022-09-21T03:53:18.369Z,0.80
2022-09-21T03:55:49.436Z,1.00
2022-09-21T03:58:21.124Z,1.13
2022-09-21T04:00:51.131Z,0.75
2022-09-21T04:03:21.986Z,0.88
2022-09-21T04:05:54.126Z,0.80
2022-09-21T04:08:25.912Z,0.80
2022-09-21T04:10:56.799Z,0.55
2022-09-21T04:13:27.768Z,0.82
2022-09-21T04:15:58.753Z,0.85
2022-09-21T04:18:28.993Z,0.80
2022-09-21T04:21:02.029Z,0.70
2022-09-21T04:23:32.996Z,0.80
2022-09-21T04:26:04.821Z,0.85
2022-09-21T04:28:35.982Z,1.00
2022-09-21T04:31:07.093Z,1.00
2022-09-21T04:33:37.466Z,0.98
2022-09-21T04:36:10.374Z,1.10
2022-09-21T04:38:41.208Z,1.00
2022-09-21T04:41:12.004Z,0.80
2022-09-21T04:43:46.099Z,1.10
2022-09-21T04:46:20.492Z,0.82
2022-09-21T04:48:51.654Z,0.82
2022-09-21T04:51:23.809Z,0.88
2022-09-21T04:53:54.560Z,0.90
2022-09-21T04:56:24.450Z,1.08
2022-09-21T04:58:55.999Z,0.82
2022-09-21T05:01:26.994Z,1.30
2022-09-21T05:04:02.254Z,0.90
2022-09-21T05:06:36.761Z,0.88
2022-09-21T05:09:23.948Z,0.90
2022-09-21T05:11:54.601Z,0.60
2022-09-21T05:14:24.885Z,0.80
2022-09-21T05:16:55.425Z,0.95
2022-09-21T05:19:26.128Z,0.70
2022-09-21T05:21:58.866Z,1.10
2022-09-21T05:24:29.875Z,0.88
2022-09-21T05:27:00.748Z,0.68
2022-09-21T05:29:32.229Z,0.60
2022-09-21T05:32:15.011Z,0.50
2022-09-21T05:34:58.831Z,0.98
2022-09-21T05:37:55.354Z,0.50
2022-09-21T05:40:26.776Z,0.90
2022-09-21T05:42:57.731Z,0.75
2022-09-21T05:45:29.464Z,0.73
2022-09-21T05:48:14.117Z,0.90
2022-09-21T05:51:04.589Z,0.75
2022-09-21T05:54:05.102Z,0.85
2022-09-21T05:56:51.415Z,0.70
2022-09-21T05:59:49.464Z,0.60
2022-09-21T06:02:44.515Z,0.73
2022-09-21T06:05:17.831Z,0.52
2022-09-21T06:07:48.546Z,0.40
2022-09-21T06:10:22.269Z,0.38
2022-09-21T06:12:52.936Z,0.60
2022-09-21T06:15:26.069Z,0.45
2022-09-21T06:17:57.097Z,0.45
2022-09-21T06:20:27.910Z,0.38
2022-09-21T06:23:04.855Z,0.40
2022-09-21T06:25:36.906Z,0.50
2022-09-21T06:28:09.408Z,0.30
2022-09-21T06:30:42.679Z,0.47
2022-09-21T06:33:13.913Z,0.50
2022-09-21T06:35:44.455Z,0.43
2022-09-21T06:38:15.324Z,0.40
2022-09-21T06:40:47.591Z,0.40
2022-09-21T06:43:18.219Z,0.65
2022-09-21T06:45:57.278Z,0.55
2022-09-21T06:48:29.704Z,0.55
2022-09-21T06:51:05.546Z,0.73
2022-09-21T06:53:38.513Z,0.63
2022-09-21T06:56:12.828Z,0.35
2022-09-21T06:58:43.118Z,0.40
2022-09-21T07:01:15.805Z,0.50
2022-09-21T07:03:47.380Z,0.35
2022-09-21T07:06:18.132Z,0.52
2022-09-21T07:11:42.588Z,0.60
2022-09-21T07:14:14.042Z,0.50
2022-09-21T07:16:46.378Z,0.50
2022-09-21T07:19:17.373Z,0.30
2022-09-21T07:21:47.920Z,0.45
2022-09-21T07:24:18.786Z,0.43
2022-09-21T07:26:52.053Z,0.50
2022-09-21T07:29:23.199Z,0.60
2022-09-21T07:31:53.495Z,0.40
2022-09-21T07:34:23.820Z,0.55
2022-09-21T07:36:54.645Z,0.50
2022-09-21T07:39:25.193Z,0.40
2022-09-21T07:41:57.914Z,0.50
2022-09-21T07:44:28.955Z,0.32
2022-09-21T07:46:59.691Z,0.40
2022-09-21T07:49:29.665Z,0.40
2022-09-21T07:52:04.450Z,0.32
2022-09-21T07:54:38.544Z,0.38
2022-09-21T07:57:27.991Z,0.50
2022-09-21T07:59:59.995Z,0.30
2022-09-21T08:02:30.518Z,0.38
2022-09-21T08:05:00.808Z,0.50
2022-09-21T08:07:31.665Z,0.50
2022-09-21T08:10:03.702Z,0.30
2022-09-21T08:12:36.434Z,0.50
2022-09-21T08:15:20.438Z,0.30
2022-09-21T08:17:59.168Z,0.40
2022-09-21T08:20:30.359Z,0.38
2022-09-21T08:23:01.575Z,0.50
2022-09-21T08:25:33.255Z,0.43
2022-09-21T08:28:09.652Z,0.35
2022-09-21T08:30:40.949Z,0.10
2022-09-21T08:33:11.988Z,0.60
2022-09-21T08:35:42.548Z,0.35
2022-09-21T08:38:13.652Z,0.30
2022-09-21T08:40:44.895Z,0.28
2022-09-21T08:43:25.858Z,0.47
2022-09-21T08:46:01.419Z,0.28
2022-09-21T08:48:38.519Z,0.30
2022-09-21T08:51:13.914Z,0.65
2022-09-21T08:53:48.901Z,0.22
2022-09-21T08:56:20.908Z,0.40
2022-09-21T08:58:53.481Z,0.40
2022-09-21T09:01:45.088Z,0.43
2022-09-21T09:04:34.316Z,0.40
2022-09-21T09:07:25.019Z,0.30
2022-09-21T09:10:23.380Z,0.30
2022-09-21T09:13:12.388Z,0.40
2022-09-21T09:16:08.235Z,0.43
2022-09-21T09:18:52.599Z,0.45
2022-09-21T09:21:32.237Z,0.40
2022-09-21T09:24:12.631Z,0.40
2022-09-21T09:26:51.916Z,0.20
2022-09-21T09:29:31.338Z,0.40
2022-09-21T09:32:06.483Z,0.30
2022-09-21T09:34:43.016Z,0.20
2022-09-21T09:37:16.955Z,0.40
2022-09-21T09:39:58.354Z,0.38
2022-09-21T09:42:53.529Z,0.30
2022-09-21T09:45:55.023Z,0.40
2022-09-21T09:49:04.958Z,0.30
2022-09-21T09:51:39.085Z,0.20
2022-09-21T09:54:16.830Z,0.57
2022-09-21T09:56:48.297Z,0.30
2022-09-21T09:59:32.447Z,0.30
2022-09-21T10:02:05.912Z,0.55
2022-09-21T10:04:39.047Z,0.38
2022-09-21T10:07:21.085Z,0.40
2022-09-21T10:09:52.247Z,0.57
2022-09-21T10:12:30.199Z,0.47
2022-09-21T10:15:02.411Z,0.30
2022-09-21T10:17:33.687Z,0.30
2022-09-21T10:20:09.373Z,0.30
2022-09-21T10:22:44.201Z,0.50
2022-09-21T10:25:21.042Z,0.20
2022-09-21T10:27:55.258Z,0.50
2022-09-21T10:30:41.797Z,0.35
2022-09-21T10:33:24.354Z,0.38
2022-09-21T10:35:57.496Z,0.40
2022-09-21T10:38:31.465Z,0.50
2022-09-21T10:41:02.299Z,0.40
2022-09-21T10:43:44.017Z,0.22
2022-09-21T10:46:16.195Z,0.30
2022-09-21T10:48:49.367Z,0.47
2022-09-21T10:51:35.313Z,0.50
2022-09-21T10:54:13.439Z,0.50
2022-09-21T10:56:58.745Z,0.47
2022-09-21T10:59:32.856Z,0.60
2022-09-21T11:02:05.616Z,0.50
2022-09-21T11:04:48.603Z,0.38
2022-09-21T11:07:32.627Z,0.40
2022-09-21T11:10:21.955Z,0.20
2022-09-21T11:13:27.012Z,0.40
2022-09-21T11:16:04.498Z,0.32
2022-09-21T11:18:49.668Z,0.25
2022-09-21T11:21:30.918Z,0.50
2022-09-21T11:24:20.779Z,0.40
2022-09-21T11:27:00.395Z,0.20
2022-09-21T11:29:39.338Z,0.15
2022-09-21T11:32:35.973Z,0.38
2022-09-21T11:35:53.531Z,0.35
2022-09-21T11:38:51.629Z,0.30
2022-09-21T11:42:01.981Z,0.47
2022-09-21T11:44:56.990Z,0.30
2022-09-21T11:48:07.285Z,0.40
2022-09-21T11:50:54.336Z,0.30
2022-09-21T11:53:40.944Z,0.30
2022-09-21T11:56:32.883Z,0.52
2022-09-21T11:59:25.532Z,0.30
2022-09-21T12:02:28.114Z,0.30
2022-09-21T12:05:13.942Z,0.40
2022-09-21T12:08:15.464Z,0.32
2022-09-21T12:11:01.300Z,0.40
2022-09-21T12:13:41.719Z,0.40
2022-09-21T12:16:28.203Z,0.30
2022-09-21T12:19:10.640Z,0.40
2022-09-21T12:21:47.337Z,0.50
2022-09-21T12:24:24.143Z,0.30
2022-09-21T12:27:01.662Z,0.30
2022-09-21T12:29:44.107Z,0.65
2022-09-21T12:32:28.688Z,0.50
2022-09-21T12:35:04.483Z,0.50
2022-09-21T12:37:47.637Z,0.40
2022-09-21T12:40:28.147Z,0.30
2022-09-21T12:43:09.119Z,0.43
2022-09-21T12:45:46.814Z,0.25
2022-09-21T12:48:34.388Z,0.38
2022-09-21T12:51:16.799Z,0.47
2022-09-21T12:53:52.071Z,0.30
2022-09-21T12:56:46.697Z,0.20
2022-09-21T12:59:33.298Z,0.35
2022-09-21T13:02:20.877Z,0.40
2022-09-21T13:05:13.569Z,0.50
2022-09-21T13:08:10.571Z,0.50
2022-09-21T13:10:54.851Z,0.22
2022-09-21T13:13:36.135Z,0.47
2022-09-21T13:16:10.075Z,0.22
2022-09-21T13:18:43.351Z,0.32
2022-09-21T13:21:32.142Z,0.38
2022-09-21T13:24:06.508Z,0.30
2022-09-21T13:26:44.479Z,0.22
2022-09-21T13:29:41.174Z,0.32
2022-09-21T13:32:27.766Z,0.40
2022-09-21T13:36:02.833Z,0.30
2022-09-21T13:39:06.438Z,0.30
2022-09-21T13:42:01.978Z,0.47
2022-09-21T13:44:47.269Z,0.20
2022-09-21T13:47:32.459Z,0.32
2022-09-21T13:50:07.503Z,0.60
2022-09-21T13:52:47.420Z,0.40
2022-09-21T13:55:38.837Z,0.40
2022-09-21T13:58:24.113Z,0.38
2022-09-21T14:00:59.663Z,0.47
2022-09-21T14:03:37.919Z,0.50
2022-09-21T14:06:14.302Z,0.13
2022-09-21T14:08:56.449Z,0.47
2022-09-21T14:11:36.280Z,0.40
2022-09-21T14:14:25.020Z,0.40
2022-09-21T14:17:01.989Z,0.40
2022-09-21T14:20:03.251Z,0.57
2022-09-21T14:22:43.558Z,0.20
2022-09-21T14:25:47.686Z,0.40
2022-09-21T14:28:23.414Z,0.30
2022-09-21T14:31:03.138Z,0.38
2022-09-21T14:33:48.665Z,0.30
2022-09-21T14:36:24.321Z,0.30
2022-09-21T14:39:02.069Z,0.30
2022-09-21T14:41:41.584Z,0.50
2022-09-21T14:44:24.087Z,0.70
2022-09-21T14:47:35.367Z,0.30
2022-09-21T14:50:36.933Z,0.38
2022-09-21T14:53:56.547Z,0.57
2022-09-21T14:56:58.796Z,0.30
2022-09-21T15:00:01.870Z,0.30
2022-09-21T15:02:38.346Z,0.40
2022-09-21T15:05:25.345Z,0.43
2022-09-21T15:08:37.659Z,0.40
2022-09-21T15:11:19.339Z,0.30
2022-09-21T15:14:14.100Z,0.47
2022-09-21T15:16:50.864Z,0.47
2022-09-21T15:19:29.829Z,0.40
2022-09-21T15:22:18.398Z,0.60
2022-09-21T15:24:55.370Z,0.25
2022-09-21T15:27:33.885Z,0.35
2022-09-21T15:30:08.521Z,0.60
2022-09-21T15:32:44.443Z,0.57
2022-09-21T15:35:22.965Z,0.40
2022-09-21T15:37:57.230Z,0.50
2022-09-21T15:40:31.028Z,0.43
2022-09-21T15:43:06.318Z,0.35
2022-09-21T15:45:55.162Z,0.43
2022-09-21T15:48:34.879Z,0.43
2022-09-21T15:51:15.732Z,0.47
2022-09-21T15:53:54.202Z,0.30
2022-09-21T15:56:28.267Z,0.40
2022-09-21T15:59:09.509Z,0.40
2022-09-21T16:01:45.428Z,0.50
2022-09-21T16:04:22.374Z,0.45
2022-09-21T16:07:06.237Z,0.45
2022-09-21T16:09:47.883Z,0.45
2022-09-21T16:12:48.958Z,0.52
2022-09-21T16:15:26.109Z,0.40
2022-09-21T16:18:05.156Z,0.40
2022-09-21T16:20:50.172Z,0.52
2022-09-21T16:23:27.410Z,0.43
2022-09-21T16:26:11.058Z,0.40
2022-09-21T16:28:43.858Z,0.70
2022-09-21T16:31:36.710Z,0.43
2022-09-21T16:34:25.387Z,0.50
2022-09-21T16:36:58.830Z,0.40
2022-09-21T16:39:29.710Z,0.50
2022-09-21T16:42:05.101Z,0.43
2022-09-21T16:44:37.366Z,0.50
2022-09-21T16:47:15.373Z,0.50
2022-09-21T16:49:46.651Z,0.50
2022-09-21T16:52:19.134Z,0.43
2022-09-21T16:54:50.297Z,0.47
2022-09-21T16:57:21.267Z,0.40
2022-09-21T16:59:55.571Z,0.60
2022-09-21T17:02:27.130Z,0.80
2022-09-21T17:04:58.062Z,0.70
2022-09-21T17:07:30.558Z,0.70
2022-09-21T17:10:01.995Z,0.45
2022-09-21T17:12:33.280Z,0.80
2022-09-21T17:15:04.394Z,0.45
2022-09-21T17:17:35.489Z,0.55
2022-09-21T17:20:21.879Z,0.60
2022-09-21T17:22:54.890Z,0.65
2022-09-21T17:25:26.035Z,0.60
2022-09-21T17:27:58.571Z,0.60
2022-09-21T17:30:30.682Z,0.52
2022-09-21T17:33:02.423Z,0.38
2022-09-21T17:35:36.371Z,0.40
2022-09-21T17:38:14.340Z,0.40
2022-09-21T17:40:46.406Z,0.50
2022-09-21T17:43:40.788Z,0.55
2022-09-21T17:46:21.972Z,0.43
2022-09-21T17:48:53.691Z,0.40
2022-09-21T17:51:38.443Z,0.38
2022-09-21T17:54:12.855Z,0.50
2022-09-21T17:56:53.811Z,0.50
2022-09-21T17:59:35.122Z,0.45
2022-09-21T18:02:20.962Z,0.52
2022-09-21T18:04:56.641Z,0.52
2022-09-21T18:07:28.447Z,0.52
2022-09-21T18:10:03.205Z,0.50
2022-09-21T18:13:30.196Z,0.43
2022-09-21T18:16:23.587Z,0.60
2022-09-21T18:19:04.859Z,0.40
2022-09-21T18:21:42.027Z,0.40
2022-09-21T18:24:31.408Z,0.52
2022-09-21T18:27:06.306Z,0.40
2022-09-21T18:29:41.357Z,0.40
2022-09-21T18:32:49.808Z,0.45
2022-09-21T18:35:39.220Z,0.77
2022-09-21T18:38:24.779Z,0.40
2022-09-21T18:41:13.878Z,0.50
2022-09-21T18:44:05.721Z,0.50
2022-09-21T18:46:51.544Z,0.50
2022-09-21T18:49:44.445Z,0.38
2022-09-21T18:52:29.293Z,0.80
2022-09-21T18:55:00.613Z,0.40
2022-09-21T18:57:33.125Z,0.55
2022-09-21T19:00:10.612Z,0.52
2022-09-21T19:03:05.084Z,0.50
2022-09-21T19:05:34.230Z,0.40
2022-09-21T19:08:16.769Z,0.60
2022-09-21T19:10:55.693Z,0.50
2022-09-21T19:13:51.914Z,0.40
2022-09-21T19:16:36.404Z,0.40
2022-09-21T19:19:27.440Z,0.50
2022-09-21T19:22:08.269Z,0.35
2022-09-21T19:24:48.569Z,0.47
2022-09-21T19:27:29.109Z,0.38
2022-09-21T19:30:09.307Z,0.63
2022-09-21T19:32:48.163Z,0.70
2022-09-21T19:35:24.560Z,0.63
2022-09-21T19:37:58.701Z,0.70
2022-09-21T19:40:33.458Z,0.50
2022-09-21T19:43:28.949Z,0.70
2022-09-21T19:46:21.175Z,0.47
2022-09-21T19:49:07.666Z,0.70
2022-09-21T19:51:47.889Z,0.60
2022-09-21T19:54:42.417Z,0.50
2022-09-21T19:57:35.927Z,0.55
2022-09-21T20:00:10.562Z,0.47
2022-09-21T20:02:52.407Z,0.50
2022-09-21T20:05:34.115Z,0.60
2022-09-21T20:08:15.442Z,0.40
2022-09-21T20:11:08.472Z,0.60
2022-09-21T20:14:12.167Z,0.52
2022-09-21T20:16:53.565Z,0.30
2022-09-21T20:19:46.923Z,0.30
2022-09-21T20:22:28.671Z,0.43
2022-09-21T20:25:07.747Z,0.40
2022-09-21T20:27:42.948Z,0.50
2022-09-21T20:30:17.548Z,0.60
2022-09-21T20:32:52.933Z,0.35
2022-09-21T20:35:26.512Z,0.43
2022-09-21T20:38:02.849Z,0.40
2022-09-21T20:40:35.341Z,0.43
2022-09-21T20:43:06.481Z,0.70
2022-09-21T20:45:37.731Z,0.50
2022-09-21T20:48:15.796Z,0.63
2022-09-21T20:50:49.265Z,0.47
2022-09-21T20:53:22.157Z,0.40
2022-09-21T20:55:58.145Z,0.45
2022-09-21T20:58:29.079Z,0.38
2022-09-21T21:01:05.556Z,0.38
2022-09-21T21:03:37.556Z,0.40
2022-09-21T21:06:13.839Z,0.68
2022-09-21T21:08:47.003Z,0.43
2022-09-21T21:11:17.792Z,0.40
2022-09-21T21:13:48.745Z,0.47
2022-09-21T21:16:19.484Z,0.43
2022-09-21T21:18:50.271Z,0.80
2022-09-21T21:21:21.269Z,1.02
2022-09-21T21:24:14.271Z,0.85
2022-09-21T21:27:01.143Z,0.80
2022-09-21T21:29:33.455Z,0.80
2022-09-21T21:32:04.943Z,0.80
2022-09-21T21:34:35.881Z,0.50
2022-09-21T21:37:06.749Z,0.43
2022-09-21T21:39:39.903Z,0.40
2022-09-21T21:42:11.244Z,0.40
2022-09-21T21:44:42.535Z,0.43
2022-09-21T21:50:05.323Z,0.43
2022-09-21T21:52:36.060Z,0.50
2022-09-21T21:55:10.760Z,0.40
2022-09-21T21:57:41.576Z,0.70
2022-09-21T22:00:14.300Z,0.60
2022-09-21T22:02:45.390Z,0.40
2022-09-21T22:05:16.449Z,0.60
2022-09-21T22:07:47.230Z,0.68
2022-09-21T22:10:20.043Z,0.50
2022-09-21T22:12:50.777Z,0.50
2022-09-21T22:15:22.003Z,0.22
2022-09-21T22:17:52.726Z,0.40
2022-09-21T22:20:24.186Z,0.32
2022-09-21T22:22:55.375Z,0.45
2022-09-21T22:25:29.237Z,0.30
2022-09-21T22:28:00.887Z,0.20
2022-09-21T22:30:31.622Z,0.40
2022-09-21T22:33:02.709Z,0.50
2022-09-21T22:35:34.905Z,0.50
2022-09-21T22:38:05.525Z,0.40
2022-09-21T22:40:39.044Z,0.30
2022-09-21T22:43:10.069Z,0.52
2022-09-21T22:45:41.102Z,0.60
2022-09-21T22:48:11.314Z,0.55
2022-09-21T22:50:42.197Z,0.47
2022-09-21T22:53:13.039Z,0.55
2022-09-21T22:55:45.679Z,0.40
2022-09-21T22:58:16.941Z,0.63
2022-09-21T23:00:47.859Z,0.50
2022-09-21T23:03:18.669Z,0.70
2022-09-21T23:06:00.061Z,0.55
2022-09-21T23:08:32.270Z,0.50
2022-09-21T23:11:13.705Z,0.50
2022-09-21T23:13:45.016Z,0.50
2022-09-21T23:16:18.088Z,0.40
2022-09-21T23:18:50.545Z,0.57
2022-09-21T23:21:25.442Z,0.60
2022-09-21T23:24:00.306Z,0.63
2022-09-21T23:26:35.856Z,0.70
2022-09-21T23:29:12.508Z,0.38
2022-09-21T23:31:45.892Z,0.43
2022-09-21T23:34:18.308Z,0.47
2022-09-21T23:36:48.841Z,0.68
2022-09-21T23:39:19.627Z,0.75
2022-09-21T23:41:52.769Z,0.68
2022-09-21T23:44:23.756Z,0.60
2022-09-21T23:46:54.720Z,0.70
2022-09-21T23:49:25.448Z,0.50
2022-09-21T23:51:56.066Z,0.70
2022-09-21T23:54:26.949Z,0.80
2022-09-21T23:57:00.073Z,0.57
2022-09-21T23:59:31.150Z,0.50
